createdAt,value
2022-09-07T00:00:39.421Z,100311.48
2022-09-07T00:03:06.139Z,100312.09
2022-09-07T00:05:33.144Z,100311.20
2022-09-07T00:08:00.122Z,100309.33
2022-09-07T00:10:26.907Z,100310.19
2022-09-07T00:12:53.657Z,100308.23
2022-09-07T00:15:20.397Z,100310.58
2022-09-07T00:17:47.117Z,100308.92
2022-09-07T00:20:15.120Z,100309.83
2022-09-07T00:22:41.938Z,100308.95
2022-09-07T00:25:09.004Z,100307.52
2022-09-07T00:27:35.733Z,100306.19
2022-09-07T00:30:02.542Z,100304.78
2022-09-07T00:32:29.157Z,100303.99
2022-09-07T00:34:55.860Z,100300.45
2022-09-07T00:37:22.694Z,100297.28
2022-09-07T00:39:49.793Z,100296.11
2022-09-07T00:42:19.298Z,100297.34
2022-09-07T00:44:57.750Z,100293.51
2022-09-07T00:47:47.237Z,100293.08
2022-09-07T00:50:22.002Z,100294.19
2022-09-07T00:52:50.288Z,100290.58
2022-09-07T00:55:17.075Z,100295.62
2022-09-07T00:57:47.019Z,100293.70
2022-09-07T01:00:14.153Z,100292.52
2022-09-07T01:02:41.126Z,100289.05
2022-09-07T01:05:13.846Z,100288.00
2022-09-07T01:07:40.622Z,100288.84
2022-09-07T01:10:07.838Z,100283.50
2022-09-07T01:12:34.638Z,100284.00
2022-09-07T01:15:01.306Z,100281.96
2022-09-07T01:17:31.933Z,100282.58
2022-09-07T01:20:01.595Z,100276.23
2022-09-07T01:22:47.067Z,100275.48
2022-09-07T01:25:16.908Z,100270.11
2022-09-07T01:27:53.312Z,100268.15
2022-09-07T01:30:20.711Z,100266.44
2022-09-07T01:32:47.394Z,100267.73
2022-09-07T01:35:29.768Z,100268.14
2022-09-07T01:37:58.741Z,100266.10
2022-09-07T01:40:56.753Z,100265.88
2022-09-07T01:43:33.035Z,100262.79
2022-09-07T01:45:59.815Z,100264.53
2022-09-07T01:48:26.579Z,100265.64
2022-09-07T01:51:03.416Z,100262.98
2022-09-07T01:53:34.108Z,100264.20
2022-09-07T01:56:03.755Z,100262.41
2022-09-07T01:58:33.989Z,100263.29
2022-09-07T02:01:26.083Z,100259.23
2022-09-07T02:04:08.156Z,100254.73
2022-09-07T02:06:42.555Z,100258.87
2022-09-07T02:09:30.337Z,100256.01
2022-09-07T02:11:57.107Z,100255.85
2022-09-07T02:14:25.991Z,100251.31
2022-09-07T02:16:59.050Z,100257.14
2022-09-07T02:19:27.508Z,100254.56
2022-09-07T02:21:59.640Z,100252.69
2022-09-07T02:24:37.770Z,100252.74
2022-09-07T02:27:07.900Z,100248.05
2022-09-07T02:29:35.502Z,100249.52
2022-09-07T02:32:02.416Z,100250.77
2022-09-07T02:34:29.106Z,100244.64
2022-09-07T02:36:55.862Z,100243.36
2022-09-07T02:39:22.549Z,100244.81
2022-09-07T02:41:49.285Z,100241.47
2022-09-07T02:44:25.587Z,100240.94
2022-09-07T02:47:01.595Z,100242.67
2022-09-07T02:49:53.168Z,100237.58
2022-09-07T02:52:51.213Z,100240.37
2022-09-07T02:55:30.160Z,100245.83
2022-09-07T02:58:29.235Z,100243.84
2022-09-07T03:01:00.857Z,100236.63
2022-09-07T03:03:47.778Z,100238.74
2022-09-07T03:06:24.448Z,100236.12
2022-09-07T03:08:53.585Z,100240.85
2022-09-07T03:11:20.375Z,100236.80
2022-09-07T03:13:47.108Z,100240.68
2022-09-07T03:16:14.477Z,100239.46
2022-09-07T03:18:42.312Z,100241.00
2022-09-07T03:21:09.152Z,100240.41
2022-09-07T03:23:37.484Z,100241.04
2022-09-07T03:26:04.574Z,100245.30
2022-09-07T03:28:31.389Z,100245.92
2022-09-07T03:30:58.196Z,100242.24
2022-09-07T03:33:24.976Z,100242.21
2022-09-07T03:35:59.894Z,100241.92
2022-09-07T03:38:26.741Z,100241.32
2022-09-07T03:41:00.410Z,100244.57
2022-09-07T03:43:27.910Z,100246.47
2022-09-07T03:46:02.241Z,100242.02
2022-09-07T03:48:35.363Z,100239.40
2022-09-07T03:51:06.625Z,100244.55
2022-09-07T03:53:37.957Z,100248.52
2022-09-07T03:56:16.174Z,100245.86
2022-09-07T03:58:42.963Z,100248.23
2022-09-07T04:01:12.300Z,100245.55
2022-09-07T04:03:39.630Z,100247.98
2022-09-07T04:06:06.379Z,100249.21
2022-09-07T04:08:36.129Z,100249.16
2022-09-07T04:11:04.249Z,100249.98
2022-09-07T04:13:31.260Z,100250.83
2022-09-07T04:15:58.100Z,100248.20
2022-09-07T04:18:24.989Z,100248.09
2022-09-07T04:20:51.999Z,100248.35
2022-09-07T04:23:19.132Z,100251.71
2022-09-07T04:28:36.783Z,100248.14
2022-09-07T04:31:03.557Z,100248.64
2022-09-07T04:33:33.714Z,100248.02
2022-09-07T04:36:01.129Z,100254.63
2022-09-07T04:38:28.280Z,100251.95
2022-09-07T04:41:02.427Z,100252.39
2022-09-07T04:43:29.739Z,100246.21
2022-09-07T04:45:56.619Z,100249.27
2022-09-07T04:48:23.335Z,100244.98
2022-09-07T04:50:52.092Z,100244.41
2022-09-07T04:53:19.760Z,100247.27
2022-09-07T04:55:46.542Z,100245.39
2022-09-07T04:58:13.213Z,100246.76
2022-09-07T05:00:40.244Z,100243.75
2022-09-07T05:03:06.965Z,100243.92
2022-09-07T05:05:35.991Z,100247.46
2022-09-07T05:08:03.005Z,100242.10
2022-09-07T05:10:29.701Z,100241.73
2022-09-07T05:12:56.700Z,100241.92
2022-09-07T05:15:23.427Z,100241.81
2022-09-07T05:17:51.087Z,100241.61
2022-09-07T05:20:20.469Z,100243.68
2022-09-07T05:22:47.641Z,100242.91
2022-09-07T05:25:14.847Z,100244.23
2022-09-07T05:27:41.709Z,100241.90
2022-09-07T05:30:09.402Z,100238.23
2022-09-07T05:32:56.545Z,100234.73
2022-09-07T05:35:23.260Z,100235.71
2022-09-07T05:37:50.582Z,100238.77
2022-09-07T05:40:17.778Z,100232.88
2022-09-07T05:42:44.614Z,100235.05
2022-09-07T05:45:11.419Z,100235.66
2022-09-07T05:47:38.196Z,100234.73
2022-09-07T05:50:05.862Z,100229.66
2022-09-07T05:52:32.984Z,100232.77
2022-09-07T05:55:13.363Z,100232.64
2022-09-07T05:57:46.468Z,100233.17
2022-09-07T06:00:14.516Z,100230.92
2022-09-07T06:02:41.299Z,100233.05
2022-09-07T06:05:08.879Z,100234.20
2022-09-07T06:07:35.756Z,100237.24
2022-09-07T06:12:49.554Z,100239.38
2022-09-07T06:15:16.517Z,100237.14
2022-09-07T06:17:43.267Z,100241.59
2022-09-07T06:20:10.063Z,100238.88
2022-09-07T06:22:37.444Z,100235.30
2022-09-07T06:25:05.322Z,100236.48
2022-09-07T06:27:32.128Z,100233.92
2022-09-07T06:29:58.967Z,100237.04
2022-09-07T06:35:13.091Z,100242.66
2022-09-07T06:37:40.120Z,100245.90
2022-09-07T06:40:08.075Z,100247.78
2022-09-07T06:42:35.173Z,100252.77
2022-09-07T06:45:02.638Z,100252.11
2022-09-07T06:47:29.489Z,100256.18
2022-09-07T06:49:56.339Z,100252.83
2022-09-07T06:52:23.222Z,100253.96
2022-09-07T06:54:59.623Z,100253.98
2022-09-07T06:57:27.216Z,100251.25
2022-09-07T06:59:54.220Z,100250.70
2022-09-07T07:02:21.498Z,100252.00
2022-09-07T07:04:48.200Z,100249.64
2022-09-07T07:07:14.929Z,100253.58
2022-09-07T07:09:41.983Z,100254.02
2022-09-07T07:12:09.766Z,100250.42
2022-09-07T07:14:39.631Z,100249.13
2022-09-07T07:17:09.564Z,100249.50
2022-09-07T07:19:36.272Z,100248.92
2022-09-07T07:22:18.679Z,100248.73
2022-09-07T07:24:49.670Z,100245.54
2022-09-07T07:27:16.678Z,100245.20
2022-09-07T07:29:43.422Z,100239.86
2022-09-07T07:32:10.123Z,100236.58
2022-09-07T07:34:36.886Z,100234.06
2022-09-07T07:37:03.629Z,100234.77
2022-09-07T07:42:16.844Z,100229.88
2022-09-07T07:44:43.472Z,100231.45
2022-09-07T07:47:10.338Z,100231.36
2022-09-07T07:49:37.070Z,100232.52
2022-09-07T07:54:50.559Z,100224.45
2022-09-07T07:57:18.992Z,100220.77
2022-09-07T07:59:45.952Z,100221.23
2022-09-07T08:02:15.287Z,100222.12
2022-09-07T08:04:42.198Z,100210.56
2022-09-07T08:07:11.034Z,100213.84
2022-09-07T08:09:39.913Z,100211.83
2022-09-07T08:12:06.914Z,100210.66
2022-09-07T08:14:36.523Z,100213.90
2022-09-07T08:17:03.228Z,100213.77
2022-09-07T08:19:30.064Z,100209.98
2022-09-07T08:21:56.767Z,100207.73
2022-09-07T08:24:23.515Z,100206.79
2022-09-07T08:26:50.344Z,100203.96
2022-09-07T08:29:17.134Z,100196.93
2022-09-07T08:31:44.678Z,100191.21
2022-09-07T08:34:11.478Z,100185.22
2022-09-07T08:36:38.313Z,100179.16
2022-09-07T08:39:09.467Z,100173.09
2022-09-07T08:41:36.256Z,100176.80
2022-09-07T08:44:05.512Z,100173.50
2022-09-07T08:46:47.581Z,100174.13
2022-09-07T08:49:33.277Z,100175.26
2022-09-07T08:52:13.418Z,100171.44
2022-09-07T08:54:40.241Z,100169.03
2022-09-07T08:57:23.665Z,100171.57
2022-09-07T09:00:02.495Z,100167.80
2022-09-07T09:02:32.735Z,100158.63
2022-09-07T09:05:18.532Z,100151.40
2022-09-07T09:07:48.652Z,100152.25
2022-09-07T09:10:22.542Z,100150.95
2022-09-07T09:13:03.370Z,100154.19
2022-09-07T09:15:52.402Z,100154.93
2022-09-07T09:18:34.135Z,100147.42
2022-09-07T09:21:01.152Z,100146.21
2022-09-07T09:23:39.475Z,100144.95
2022-09-07T09:26:15.493Z,100143.77
2022-09-07T09:28:42.433Z,100138.83
2022-09-07T09:31:23.338Z,100132.35
2022-09-07T09:34:05.352Z,100131.84
2022-09-07T09:36:34.441Z,100134.10
2022-09-07T09:39:01.378Z,100130.98
2022-09-07T09:41:37.843Z,100132.08
2022-09-07T09:44:04.666Z,100116.70
2022-09-07T09:46:33.517Z,100119.28
2022-09-07T09:49:01.788Z,100118.63
2022-09-07T09:54:25.965Z,100108.67
2022-09-07T09:56:53.510Z,100104.71
2022-09-07T10:05:27.591Z,100097.36
2022-09-07T10:07:54.558Z,100103.02
2022-09-07T10:10:21.352Z,100101.14
2022-09-07T10:12:48.216Z,100097.52
2022-09-07T10:15:40.102Z,100101.27
2022-09-07T10:18:09.690Z,100102.71
2022-09-07T10:20:37.903Z,100101.90
2022-09-07T10:23:05.635Z,100095.30
2022-09-07T10:25:39.783Z,100091.81
2022-09-07T10:28:10.103Z,100092.86
2022-09-07T10:30:50.324Z,100090.46
2022-09-07T10:33:24.643Z,100085.56
2022-09-07T10:36:01.810Z,100082.05
2022-09-07T10:38:28.811Z,100081.25
2022-09-07T10:41:10.923Z,100072.70
2022-09-07T10:43:43.922Z,100071.55
2022-09-07T10:49:33.274Z,100065.04
2022-09-07T10:52:09.156Z,100062.11
2022-09-07T10:54:55.277Z,100055.40
2022-09-07T10:57:22.028Z,100059.33
2022-09-07T11:00:14.165Z,100058.55
2022-09-07T11:06:05.437Z,100051.11
2022-09-07T11:09:15.697Z,100048.39
2022-09-07T11:14:16.885Z,100041.05
2022-09-07T11:16:51.199Z,100037.75
2022-09-07T11:19:35.290Z,100032.06
2022-09-07T11:22:37.258Z,100036.64
2022-09-07T11:25:33.802Z,100028.81
2022-09-07T11:28:29.128Z,100027.66
2022-09-07T11:31:00.231Z,100023.75
2022-09-07T11:33:42.136Z,100030.45
2022-09-07T11:36:12.700Z,100018.30
2022-09-07T11:38:51.344Z,100013.66
2022-09-07T11:41:32.411Z,100010.73
2022-09-07T11:44:28.460Z,100013.15
2022-09-07T11:46:57.918Z,100007.75
2022-09-07T11:49:26.044Z,100005.40
2022-09-07T11:52:19.304Z,100001.56
2022-09-07T11:54:48.895Z,99999.76
2022-09-07T11:57:15.799Z,99999.08
2022-09-07T12:00:06.353Z,100001.93
2022-09-07T12:02:59.972Z,99999.52
2022-09-07T12:05:52.341Z,99992.43
2022-09-07T12:08:40.571Z,99986.31
2022-09-07T12:11:20.124Z,99980.87
2022-09-07T12:14:04.154Z,99974.17
2022-09-07T12:16:55.563Z,99977.59
2022-09-07T12:19:25.699Z,99965.70
2022-09-07T12:21:52.373Z,99965.46
2022-09-07T12:24:37.808Z,99963.79
2022-09-07T12:27:26.440Z,99960.52
2022-09-07T12:30:01.276Z,99961.81
2022-09-07T12:32:54.984Z,99960.27
2022-09-07T12:35:29.807Z,99952.36
2022-09-07T12:37:57.566Z,99947.34
2022-09-07T12:40:27.679Z,99947.16
2022-09-07T12:43:12.751Z,99945.91
2022-09-07T12:45:39.501Z,99942.20
2022-09-07T12:48:15.501Z,99937.39
2022-09-07T12:50:56.695Z,99937.23
2022-09-07T12:53:48.336Z,99939.52
2022-09-07T12:56:36.370Z,99940.27
2022-09-07T12:59:26.248Z,99939.50
2022-09-07T13:02:11.880Z,99936.16
2022-09-07T13:04:59.873Z,99929.81
2022-09-07T13:07:35.653Z,99929.95
2022-09-07T13:10:04.650Z,99925.09
2022-09-07T13:12:54.768Z,99921.33
2022-09-07T13:15:41.047Z,99919.82
2022-09-07T13:18:29.802Z,99920.17
2022-09-07T13:21:08.770Z,99915.48
2022-09-07T13:23:37.942Z,99916.15
2022-09-07T13:26:09.679Z,99919.25
2022-09-07T13:28:48.702Z,99915.31
2022-09-07T13:31:34.065Z,99911.83
2022-09-07T13:34:00.923Z,99910.55
2022-09-07T13:36:39.441Z,99907.41
2022-09-07T13:39:09.656Z,99904.63
2022-09-07T13:41:38.199Z,99903.27
2022-09-07T13:44:05.743Z,99899.45
2022-09-07T13:46:50.645Z,99900.09
2022-09-07T13:49:32.540Z,99895.76
2022-09-07T13:52:14.205Z,99896.38
2022-09-07T13:55:08.091Z,99897.35
2022-09-07T13:58:11.827Z,99892.95
2022-09-07T14:00:52.993Z,99890.92
2022-09-07T14:03:19.779Z,99888.11
2022-09-07T14:05:46.500Z,99886.23
2022-09-07T14:08:29.467Z,99895.97
2022-09-07T14:10:56.156Z,99893.24
2022-09-07T14:13:22.849Z,99886.77
2022-09-07T14:15:49.849Z,99884.52
2022-09-07T14:18:18.921Z,99885.44
2022-09-07T14:20:50.069Z,99883.73
2022-09-07T14:23:19.348Z,99883.88
2022-09-07T14:28:35.990Z,99879.20
2022-09-07T14:31:03.095Z,99884.59
2022-09-07T14:33:29.869Z,99880.40
2022-09-07T14:35:57.262Z,99879.76
2022-09-07T14:41:13.850Z,99875.66
2022-09-07T14:43:53.856Z,99870.06
2022-09-07T14:46:25.284Z,99873.49
2022-09-07T14:49:02.670Z,99875.60
2022-09-07T14:51:36.140Z,99871.96
2022-09-07T14:54:07.597Z,99866.48
2022-09-07T14:56:40.207Z,99865.70
2022-09-07T14:59:36.734Z,99865.77
2022-09-07T15:02:24.757Z,99863.48
2022-09-07T15:05:12.784Z,99862.06
2022-09-07T15:07:40.922Z,99858.12
2022-09-07T15:10:23.557Z,99855.55
2022-09-07T15:12:55.122Z,99849.44
2022-09-07T15:15:26.145Z,99850.05
2022-09-07T15:17:54.512Z,99847.54
2022-09-07T15:20:31.596Z,99844.64
2022-09-07T15:22:58.457Z,99850.23
2022-09-07T15:25:25.220Z,99852.89
2022-09-07T15:27:51.959Z,99854.04
2022-09-07T15:30:18.778Z,99854.23
2022-09-07T15:32:45.550Z,99848.54
2022-09-07T15:35:12.517Z,99849.39
2022-09-07T15:40:26.068Z,99843.88
2022-09-07T15:43:00.515Z,99840.94
2022-09-07T15:45:27.474Z,99840.45
2022-09-07T15:47:54.276Z,99840.28
2022-09-07T15:50:23.146Z,99838.73
2022-09-07T15:52:50.572Z,99839.40
2022-09-07T15:55:17.788Z,99839.11
2022-09-07T15:57:49.218Z,99840.74
2022-09-07T16:00:17.207Z,99837.82
2022-09-07T16:05:31.552Z,99837.95
2022-09-07T16:10:53.578Z,99840.48
2022-09-07T16:13:20.668Z,99839.81
2022-09-07T16:15:47.884Z,99838.81
2022-09-07T16:18:16.939Z,99844.51
2022-09-07T16:20:44.110Z,99838.87
2022-09-07T16:23:15.232Z,99842.19
2022-09-07T16:25:43.411Z,99842.50
2022-09-07T16:28:10.458Z,99844.58
2022-09-07T16:30:40.701Z,99845.59
2022-09-07T16:33:07.854Z,99847.80
2022-09-07T16:35:34.671Z,99851.02
2022-09-07T16:40:50.605Z,99856.73
2022-09-07T16:48:07.766Z,99868.89
2022-09-07T16:50:34.491Z,99866.42
2022-09-07T16:53:01.231Z,99867.60
2022-09-07T16:55:27.904Z,99870.25
2022-09-07T17:00:41.985Z,99867.83
2022-09-07T17:03:09.747Z,99873.78
2022-09-07T17:05:40.539Z,99872.84
2022-09-07T17:08:07.303Z,99871.45
2022-09-07T17:10:33.944Z,99876.30
2022-09-07T17:13:00.679Z,99876.30
2022-09-07T17:15:27.309Z,99881.48
2022-09-07T17:17:54.031Z,99883.79
2022-09-07T17:20:20.768Z,99888.04
2022-09-07T17:22:47.432Z,99886.26
2022-09-07T17:25:14.236Z,99889.20
2022-09-07T17:27:41.289Z,99886.46
2022-09-07T17:30:11.104Z,99887.91
2022-09-07T17:32:38.261Z,99885.80
2022-09-07T17:35:05.927Z,99884.73
2022-09-07T17:37:32.642Z,99883.52
2022-09-07T17:39:59.309Z,99880.77
2022-09-07T17:43:38.886Z,99880.22
2022-09-07T17:45:14.807Z,99885.03
2022-09-07T17:47:41.408Z,99881.17
2022-09-07T17:50:08.482Z,99881.88
2022-09-07T17:52:38.732Z,99886.24
2022-09-07T17:55:07.609Z,99882.71
2022-09-07T17:57:34.867Z,99885.65
2022-09-07T18:00:12.208Z,99886.45
2022-09-07T18:02:39.249Z,99884.18
2022-09-07T18:05:07.054Z,99885.59
2022-09-07T18:07:35.077Z,99885.83
2022-09-07T18:10:01.942Z,99887.33
2022-09-07T18:12:28.671Z,99884.95
2022-09-07T18:14:55.420Z,99885.84
2022-09-07T18:17:22.040Z,99883.80
2022-09-07T18:19:48.911Z,99884.48
2022-09-07T18:22:15.491Z,99886.85
2022-09-07T18:24:42.320Z,99883.91
2022-09-07T18:27:09.798Z,99886.66
2022-09-07T18:29:37.296Z,99890.59
2022-09-07T18:32:08.303Z,99890.07
2022-09-07T18:34:36.278Z,99893.98
2022-09-07T18:37:03.180Z,99895.39
2022-09-07T18:39:30.016Z,99889.57
2022-09-07T18:41:57.072Z,99886.27
2022-09-07T18:47:21.464Z,99884.70
2022-09-07T18:49:50.124Z,99881.35
2022-09-07T18:55:07.091Z,99881.23
2022-09-07T18:57:36.075Z,99881.16
2022-09-07T19:00:04.906Z,99875.46
2022-09-07T19:02:31.781Z,99877.05
2022-09-07T19:07:45.224Z,99875.06
2022-09-07T19:10:14.419Z,99877.27
2022-09-07T19:12:45.483Z,99875.16
2022-09-07T19:15:12.859Z,99874.20
2022-09-07T19:17:39.506Z,99868.10
2022-09-07T19:20:06.571Z,99871.53
2022-09-07T19:22:33.314Z,99869.88
2022-09-07T19:24:59.995Z,99869.98
2022-09-07T19:27:27.235Z,99865.70
2022-09-07T19:29:53.982Z,99869.19
2022-09-07T19:32:20.709Z,99867.23
2022-09-07T19:34:49.083Z,99866.23
2022-09-07T19:37:15.873Z,99870.22
2022-09-07T19:39:42.580Z,99869.34
2022-09-07T19:42:09.294Z,99871.28
2022-09-07T19:44:36.127Z,99871.66
2022-09-07T19:47:02.918Z,99870.33
2022-09-07T19:49:30.230Z,99869.24
2022-09-07T19:51:56.930Z,99869.29
2022-09-07T19:54:23.700Z,99872.23
2022-09-07T19:56:50.317Z,99871.18
2022-09-07T19:59:19.547Z,99871.63
2022-09-07T20:01:48.301Z,99873.58
2022-09-07T20:04:20.323Z,99875.94
2022-09-07T20:06:49.784Z,99876.83
2022-09-07T20:09:20.450Z,99879.98
2022-09-07T20:11:47.848Z,99880.92
2022-09-07T20:14:17.838Z,99878.59
2022-09-07T20:16:44.735Z,99880.64
2022-09-07T20:19:12.079Z,99879.90
2022-09-07T20:21:38.962Z,99880.41
2022-09-07T20:24:05.899Z,99883.34
2022-09-07T20:26:33.146Z,99883.76
2022-09-07T20:29:25.652Z,99880.96
2022-09-07T20:31:46.913Z,99887.31
2022-09-07T20:34:13.993Z,99884.33
2022-09-07T20:36:40.839Z,99876.81
2022-09-07T20:39:07.532Z,99879.57
2022-09-07T20:41:34.492Z,99877.88
2022-09-07T20:44:02.954Z,99879.86
2022-09-07T20:46:30.506Z,99883.60
2022-09-07T20:48:57.362Z,99885.11
2022-09-07T20:51:24.261Z,99882.02
2022-09-07T20:53:51.311Z,99883.36
2022-09-07T20:56:22.634Z,99880.17
2022-09-07T20:58:49.743Z,99880.05
2022-09-07T21:01:17.974Z,99881.92
2022-09-07T21:03:49.061Z,99882.15
2022-09-07T21:06:16.474Z,99879.03
2022-09-07T21:08:43.673Z,99882.81
2022-09-07T21:11:11.138Z,99884.29
2022-09-07T21:13:37.891Z,99882.64
2022-09-07T21:16:05.566Z,99879.70
2022-09-07T21:18:32.726Z,99878.88
2022-09-07T21:21:19.336Z,99884.77
2022-09-07T21:23:47.141Z,99884.94
2022-09-07T21:26:13.767Z,99881.13
2022-09-07T21:28:40.445Z,99888.16
2022-09-07T21:31:08.076Z,99885.15
2022-09-07T21:33:35.470Z,99883.42
2022-09-07T21:36:06.685Z,99878.27
2022-09-07T21:38:34.149Z,99875.54
2022-09-07T21:41:12.264Z,99875.79
2022-09-07T21:43:38.994Z,99877.35
2022-09-07T21:46:16.750Z,99877.53
2022-09-07T21:48:44.939Z,99874.44
2022-09-07T21:51:15.102Z,99872.96
2022-09-07T21:53:42.347Z,99873.22
2022-09-07T21:56:11.531Z,99871.08
2022-09-07T21:58:39.828Z,99868.59
2022-09-07T22:01:16.370Z,99867.80
2022-09-07T22:03:44.279Z,99864.42
2022-09-07T22:06:11.486Z,99868.10
2022-09-07T22:08:39.547Z,99861.70
2022-09-07T22:11:11.439Z,99866.16
2022-09-07T22:13:38.127Z,99868.92
2022-09-07T22:16:05.131Z,99869.66
2022-09-07T22:18:31.970Z,99863.27
2022-09-07T22:21:05.388Z,99863.79
2022-09-07T22:23:33.242Z,99863.60
2022-09-07T22:26:00.095Z,99862.46
2022-09-07T22:28:28.862Z,99859.84
2022-09-07T22:30:56.089Z,99862.80
2022-09-07T22:33:22.784Z,99858.67
2022-09-07T22:35:49.498Z,99856.89
2022-09-07T22:38:16.211Z,99851.52
2022-09-07T22:40:42.877Z,99846.86
2022-09-07T22:43:09.532Z,99843.20
2022-09-07T22:45:36.366Z,99846.16
2022-09-07T22:48:03.077Z,99843.91
2022-09-07T22:50:29.738Z,99841.42
2022-09-07T22:52:56.405Z,99837.65
2022-09-07T22:55:23.069Z,99841.25
2022-09-07T22:57:49.749Z,99838.89
2022-09-07T23:00:16.884Z,99842.90
2022-09-07T23:02:44.292Z,99850.98
2022-09-07T23:05:11.467Z,99849.09
2022-09-07T23:07:38.207Z,99847.98
2022-09-07T23:10:05.105Z,99844.41
2022-09-07T23:12:31.776Z,99842.69
2022-09-07T23:14:58.582Z,99840.80
2022-09-07T23:17:25.289Z,99841.78
2022-09-07T23:19:51.933Z,99842.74
2022-09-07T23:22:18.602Z,99837.95
2022-09-07T23:24:45.263Z,99837.27
2022-09-07T23:27:11.935Z,99833.10
2022-09-07T23:29:38.580Z,99828.36
2022-09-07T23:32:05.407Z,99827.55
2022-09-07T23:34:32.011Z,99829.01
2022-09-07T23:36:58.700Z,99824.00
2022-09-07T23:39:25.378Z,99823.98
2022-09-07T23:41:52.027Z,99824.19
2022-09-07T23:44:18.957Z,99820.95
2022-09-07T23:46:45.743Z,99822.12
2022-09-07T23:49:12.407Z,99823.62
2022-09-07T23:51:39.067Z,99823.55
2022-09-07T23:54:05.815Z,99819.33
2022-09-07T23:56:32.744Z,99818.23
2022-09-07T23:58:59.403Z,99814.91
